Terminal Aerodrome Forecast
Issued by NWS Blacksburg, VA

Current Version | Previous Version | Graphics & Text | Print | Product List | Glossary On
Versions: 1 2 3 4 5 6 7 8 9 10 11 12 13 14 15 16 17 18 19 20 21 22 23 24 25 26 27 28 29 30 31 32 33 34 35 36 37 38 39 40
371
FTUS41 KRNK 171120
TAFBLF
TAF
KBLF 171120Z 1712/1812 04003KT P6SM SCT250
     FM171500 00000KT P6SM SCT140
     FM180500 17006KT P6SM SCT200
     FM181100 19007KT P6SM BKN110=

USA.gov is the U.S. government's official web portal to all federal, state and local government web resources and services.